sensor_id;sensor_type;location;lat;lon;timestamp;temperature;humidity
28608;DHT22;15802;45.654;13.804;2023-05-07T00:00:38;17.10;99.90
28608;DHT22;15802;45.654;13.804;2023-05-07T00:03:05;17.10;99.90
28608;DHT22;15802;45.654;13.804;2023-05-07T00:05:31;17.10;99.90
28608;DHT22;15802;45.654;13.804;2023-05-07T00:07:57;17.00;99.90
28608;DHT22;15802;45.654;13.804;2023-05-07T00:10:23;16.90;99.90
28608;DHT22;15802;45.654;13.804;2023-05-07T00:12:49;17.00;99.90
28608;DHT22;15802;45.654;13.804;2023-05-07T00:15:14;16.90;99.90
28608;DHT22;15802;45.654;13.804;2023-05-07T00:17:40;16.90;99.90
28608;DHT22;15802;45.654;13.804;2023-05-07T00:20:06;16.90;99.90
28608;DHT22;15802;45.654;13.804;2023-05-07T00:22:32;16.90;99.90
28608;DHT22;15802;45.654;13.804;2023-05-07T00:24:58;16.90;99.90
28608;DHT22;15802;45.654;13.804;2023-05-07T00:27:24;16.90;99.90
28608;DHT22;15802;45.654;13.804;2023-05-07T00:29:50;16.90;99.90
28608;DHT22;15802;45.654;13.804;2023-05-07T00:32:16;16.90;99.90
28608;DHT22;15802;45.654;13.804;2023-05-07T00:34:42;16.80;99.90
28608;DHT22;15802;45.654;13.804;2023-05-07T00:37:08;16.80;99.90
28608;DHT22;15802;45.654;13.804;2023-05-07T00:39:34;16.70;99.90
28608;DHT22;15802;45.654;13.804;2023-05-07T00:42:00;16.70;99.90
28608;DHT22;15802;45.654;13.804;2023-05-07T00:44:26;16.60;99.90
28608;DHT22;15802;45.654;13.804;2023-05-07T00:46:53;16.60;99.90
28608;DHT22;15802;45.654;13.804;2023-05-07T00:49:19;16.60;99.90
28608;DHT22;15802;45.654;13.804;2023-05-07T00:51:45;16.50;99.90
28608;DHT22;15802;45.654;13.804;2023-05-07T00:54:11;16.50;99.90
28608;DHT22;15802;45.654;13.804;2023-05-07T00:56:39;16.50;99.90
28608;DHT22;15802;45.654;13.804;2023-05-07T00:59:05;16.50;99.90
28608;DHT22;15802;45.654;13.804;2023-05-07T01:01:31;16.50;99.90
28608;DHT22;15802;45.654;13.804;2023-05-07T01:03:56;16.50;99.90
28608;DHT22;15802;45.654;13.804;2023-05-07T01:06:23;16.50;99.90
28608;DHT22;15802;45.654;13.804;2023-05-07T01:08:49;16.50;99.90
28608;DHT22;15802;45.654;13.804;2023-05-07T01:11:16;16.50;99.90
28608;DHT22;15802;45.654;13.804;2023-05-07T01:13:43;16.50;99.90
28608;DHT22;15802;45.654;13.804;2023-05-07T01:16:09;16.50;99.90
28608;DHT22;15802;45.654;13.804;2023-05-07T01:18:34;16.50;99.90
28608;DHT22;15802;45.654;13.804;2023-05-07T01:21:00;16.50;99.90
28608;DHT22;15802;45.654;13.804;2023-05-07T01:23:27;16.40;99.90
28608;DHT22;15802;45.654;13.804;2023-05-07T01:25:53;16.40;99.90
28608;DHT22;15802;45.654;13.804;2023-05-07T01:28:19;16.30;99.90
28608;DHT22;15802;45.654;13.804;2023-05-07T01:30:48;16.30;99.90
28608;DHT22;15802;45.654;13.804;2023-05-07T01:33:15;16.30;99.90
28608;DHT22;15802;45.654;13.804;2023-05-07T01:35:43;16.30;99.90
28608;DHT22;15802;45.654;13.804;2023-05-07T01:38:10;16.30;99.90
28608;DHT22;15802;45.654;13.804;2023-05-07T01:40:36;16.30;99.90
28608;DHT22;15802;45.654;13.804;2023-05-07T01:43:03;16.30;99.90
28608;DHT22;15802;45.654;13.804;2023-05-07T01:45:29;16.40;99.90
28608;DHT22;15802;45.654;13.804;2023-05-07T01:47:55;16.30;99.90
28608;DHT22;15802;45.654;13.804;2023-05-07T01:50:21;16.30;99.90
28608;DHT22;15802;45.654;13.804;2023-05-07T01:52:49;16.30;99.90
28608;DHT22;15802;45.654;13.804;2023-05-07T01:55:16;16.30;99.90
28608;DHT22;15802;45.654;13.804;2023-05-07T01:57:41;16.30;99.90
28608;DHT22;15802;45.654;13.804;2023-05-07T02:00:07;16.30;99.90
28608;DHT22;15802;45.654;13.804;2023-05-07T02:02:34;16.30;99.90
28608;DHT22;15802;45.654;13.804;2023-05-07T02:05:00;16.30;99.90
28608;DHT22;15802;45.654;13.804;2023-05-07T02:07:27;16.30;99.90
28608;DHT22;15802;45.654;13.804;2023-05-07T02:09:53;16.30;99.90
28608;DHT22;15802;45.654;13.804;2023-05-07T02:12:19;16.30;99.90
28608;DHT22;15802;45.654;13.804;2023-05-07T02:14:44;16.30;99.90
28608;DHT22;15802;45.654;13.804;2023-05-07T02:17:10;16.20;99.90
28608;DHT22;15802;45.654;13.804;2023-05-07T02:19:36;16.20;99.90
28608;DHT22;15802;45.654;13.804;2023-05-07T02:22:01;16.20;99.90
28608;DHT22;15802;45.654;13.804;2023-05-07T02:24:27;16.20;99.90
28608;DHT22;15802;45.654;13.804;2023-05-07T02:26:53;16.20;99.90
28608;DHT22;15802;45.654;13.804;2023-05-07T02:29:19;16.10;99.90
28608;DHT22;15802;45.654;13.804;2023-05-07T02:31:44;16.10;99.90
28608;DHT22;15802;45.654;13.804;2023-05-07T02:34:10;16.10;99.90
28608;DHT22;15802;45.654;13.804;2023-05-07T02:36:36;16.10;99.90
28608;DHT22;15802;45.654;13.804;2023-05-07T02:39:01;16.10;99.90
28608;DHT22;15802;45.654;13.804;2023-05-07T02:41:28;16.10;99.90
28608;DHT22;15802;45.654;13.804;2023-05-07T02:43:53;16.10;99.90
28608;DHT22;15802;45.654;13.804;2023-05-07T02:46:19;16.10;99.90
28608;DHT22;15802;45.654;13.804;2023-05-07T02:48:45;16.20;99.90
28608;DHT22;15802;45.654;13.804;2023-05-07T02:51:10;16.20;99.90
28608;DHT22;15802;45.654;13.804;2023-05-07T02:53:36;16.10;99.90
28608;DHT22;15802;45.654;13.804;2023-05-07T02:56:02;16.10;99.90
28608;DHT22;15802;45.654;13.804;2023-05-07T02:58:27;16.10;99.90
28608;DHT22;15802;45.654;13.804;2023-05-07T03:00:53;16.10;99.90
28608;DHT22;15802;45.654;13.804;2023-05-07T03:03:20;16.00;99.90
28608;DHT22;15802;45.654;13.804;2023-05-07T03:05:46;16.00;99.90
28608;DHT22;15802;45.654;13.804;2023-05-07T03:08:12;16.00;99.90
28608;DHT22;15802;45.654;13.804;2023-05-07T03:10:37;16.00;99.90
28608;DHT22;15802;45.654;13.804;2023-05-07T03:13:03;16.00;99.90
28608;DHT22;15802;45.654;13.804;2023-05-07T03:15:29;16.00;99.90
28608;DHT22;15802;45.654;13.804;2023-05-07T03:17:55;16.00;99.90
28608;DHT22;15802;45.654;13.804;2023-05-07T03:20:20;15.90;99.90
28608;DHT22;15802;45.654;13.804;2023-05-07T03:22:46;15.90;99.90
28608;DHT22;15802;45.654;13.804;2023-05-07T03:25:12;15.90;99.90
28608;DHT22;15802;45.654;13.804;2023-05-07T03:27:39;15.90;99.90
28608;DHT22;15802;45.654;13.804;2023-05-07T03:30:05;15.90;99.90
28608;DHT22;15802;45.654;13.804;2023-05-07T03:32:32;15.90;99.90
28608;DHT22;15802;45.654;13.804;2023-05-07T03:34:57;15.80;99.90
28608;DHT22;15802;45.654;13.804;2023-05-07T03:37:23;15.80;99.90
28608;DHT22;15802;45.654;13.804;2023-05-07T03:39:49;15.80;99.90
28608;DHT22;15802;45.654;13.804;2023-05-07T03:42:15;15.80;99.90
28608;DHT22;15802;45.654;13.804;2023-05-07T03:44:41;15.80;99.90
28608;DHT22;15802;45.654;13.804;2023-05-07T03:47:07;15.80;99.90
28608;DHT22;15802;45.654;13.804;2023-05-07T03:49:33;15.80;99.90
28608;DHT22;15802;45.654;13.804;2023-05-07T03:51:58;15.80;99.90
28608;DHT22;15802;45.654;13.804;2023-05-07T03:54:24;15.80;99.90
28608;DHT22;15802;45.654;13.804;2023-05-07T03:56:50;15.80;99.90
28608;DHT22;15802;45.654;13.804;2023-05-07T03:59:16;15.80;99.90
28608;DHT22;15802;45.654;13.804;2023-05-07T04:01:42;15.90;99.90
28608;DHT22;15802;45.654;13.804;2023-05-07T04:04:07;15.90;99.90
28608;DHT22;15802;45.654;13.804;2023-05-07T04:06:33;15.90;99.90
28608;DHT22;15802;45.654;13.804;2023-05-07T04:09:02;15.90;99.90
28608;DHT22;15802;45.654;13.804;2023-05-07T04:11:27;15.80;99.90
28608;DHT22;15802;45.654;13.804;2023-05-07T04:13:53;15.80;99.90
28608;DHT22;15802;45.654;13.804;2023-05-07T04:16:18;15.80;99.90
28608;DHT22;15802;45.654;13.804;2023-05-07T04:18:44;15.80;99.90
28608;DHT22;15802;45.654;13.804;2023-05-07T04:21:14;15.80;99.90
28608;DHT22;15802;45.654;13.804;2023-05-07T04:23:39;15.80;99.90
28608;DHT22;15802;45.654;13.804;2023-05-07T04:26:05;15.80;99.90
28608;DHT22;15802;45.654;13.804;2023-05-07T04:28:31;15.90;99.90
28608;DHT22;15802;45.654;13.804;2023-05-07T04:30:57;15.90;99.90
28608;DHT22;15802;45.654;13.804;2023-05-07T04:33:22;15.90;99.90
28608;DHT22;15802;45.654;13.804;2023-05-07T04:35:48;15.90;99.90
28608;DHT22;15802;45.654;13.804;2023-05-07T04:38:14;15.90;99.90
28608;DHT22;15802;45.654;13.804;2023-05-07T04:40:40;15.90;99.90
28608;DHT22;15802;45.654;13.804;2023-05-07T04:43:06;15.90;99.90
28608;DHT22;15802;45.654;13.804;2023-05-07T04:45:34;16.00;99.90
28608;DHT22;15802;45.654;13.804;2023-05-07T04:48:00;16.00;99.90
28608;DHT22;15802;45.654;13.804;2023-05-07T04:50:26;16.00;99.90
28608;DHT22;15802;45.654;13.804;2023-05-07T04:52:52;16.10;99.90
28608;DHT22;15802;45.654;13.804;2023-05-07T04:55:17;16.10;99.90
28608;DHT22;15802;45.654;13.804;2023-05-07T04:57:43;16.10;99.90
28608;DHT22;15802;45.654;13.804;2023-05-07T05:00:09;16.20;99.90
28608;DHT22;15802;45.654;13.804;2023-05-07T05:02:35;16.20;99.90
28608;DHT22;15802;45.654;13.804;2023-05-07T05:05:01;16.20;99.90
28608;DHT22;15802;45.654;13.804;2023-05-07T05:07:27;16.20;99.90
28608;DHT22;15802;45.654;13.804;2023-05-07T05:09:54;16.20;99.90
28608;DHT22;15802;45.654;13.804;2023-05-07T05:12:20;16.20;99.90
28608;DHT22;15802;45.654;13.804;2023-05-07T05:14:46;16.20;99.90
28608;DHT22;15802;45.654;13.804;2023-05-07T05:17:12;16.20;99.90
28608;DHT22;15802;45.654;13.804;2023-05-07T05:19:38;16.30;99.90
28608;DHT22;15802;45.654;13.804;2023-05-07T05:22:04;16.30;99.90
28608;DHT22;15802;45.654;13.804;2023-05-07T05:24:30;16.20;99.90
28608;DHT22;15802;45.654;13.804;2023-05-07T05:26:55;16.30;99.90
28608;DHT22;15802;45.654;13.804;2023-05-07T05:29:21;16.30;99.90
28608;DHT22;15802;45.654;13.804;2023-05-07T05:31:47;16.40;99.90
28608;DHT22;15802;45.654;13.804;2023-05-07T05:34:13;16.40;99.90
28608;DHT22;15802;45.654;13.804;2023-05-07T05:36:38;16.40;99.90
28608;DHT22;15802;45.654;13.804;2023-05-07T05:39:04;16.50;99.90
28608;DHT22;15802;45.654;13.804;2023-05-07T05:41:30;16.60;99.90
28608;DHT22;15802;45.654;13.804;2023-05-07T05:43:55;16.60;99.90
28608;DHT22;15802;45.654;13.804;2023-05-07T05:46:21;16.70;99.90
28608;DHT22;15802;45.654;13.804;2023-05-07T05:48:47;16.70;99.90
28608;DHT22;15802;45.654;13.804;2023-05-07T05:51:12;16.80;99.90
28608;DHT22;15802;45.654;13.804;2023-05-07T05:53:38;16.90;99.90
28608;DHT22;15802;45.654;13.804;2023-05-07T05:56:04;17.00;99.90
28608;DHT22;15802;45.654;13.804;2023-05-07T05:58:30;17.10;99.90
28608;DHT22;15802;45.654;13.804;2023-05-07T06:00:55;17.20;99.90
28608;DHT22;15802;45.654;13.804;2023-05-07T06:03:21;17.30;99.90
28608;DHT22;15802;45.654;13.804;2023-05-07T06:05:47;17.40;99.90
28608;DHT22;15802;45.654;13.804;2023-05-07T06:08:13;17.50;99.90
28608;DHT22;15802;45.654;13.804;2023-05-07T06:10:39;17.60;99.90
28608;DHT22;15802;45.654;13.804;2023-05-07T06:13:05;17.70;99.90
28608;DHT22;15802;45.654;13.804;2023-05-07T06:15:30;17.80;99.90
28608;DHT22;15802;45.654;13.804;2023-05-07T06:17:56;17.90;99.90
28608;DHT22;15802;45.654;13.804;2023-05-07T06:20:22;18.00;99.90
28608;DHT22;15802;45.654;13.804;2023-05-07T06:22:48;18.10;99.90
28608;DHT22;15802;45.654;13.804;2023-05-07T06:25:14;18.20;99.90
28608;DHT22;15802;45.654;13.804;2023-05-07T06:27:39;18.40;99.90
28608;DHT22;15802;45.654;13.804;2023-05-07T06:30:06;18.60;99.90
28608;DHT22;15802;45.654;13.804;2023-05-07T06:32:31;18.70;99.90
28608;DHT22;15802;45.654;13.804;2023-05-07T06:34:59;18.90;99.90
28608;DHT22;15802;45.654;13.804;2023-05-07T06:37:25;19.00;99.90
28608;DHT22;15802;45.654;13.804;2023-05-07T06:39:50;19.00;99.90
28608;DHT22;15802;45.654;13.804;2023-05-07T06:42:16;19.10;99.90
28608;DHT22;15802;45.654;13.804;2023-05-07T06:44:42;19.10;99.90
28608;DHT22;15802;45.654;13.804;2023-05-07T06:47:08;19.10;99.90
28608;DHT22;15802;45.654;13.804;2023-05-07T06:49:33;19.20;99.90
28608;DHT22;15802;45.654;13.804;2023-05-07T06:51:59;19.20;99.90
28608;DHT22;15802;45.654;13.804;2023-05-07T06:54:25;19.20;99.90
28608;DHT22;15802;45.654;13.804;2023-05-07T06:56:50;19.30;99.90
28608;DHT22;15802;45.654;13.804;2023-05-07T06:59:16;19.30;99.90
28608;DHT22;15802;45.654;13.804;2023-05-07T07:01:42;19.40;99.90
28608;DHT22;15802;45.654;13.804;2023-05-07T07:04:07;19.50;99.90
28608;DHT22;15802;45.654;13.804;2023-05-07T07:06:33;19.60;99.90
28608;DHT22;15802;45.654;13.804;2023-05-07T07:08:59;19.60;99.90
28608;DHT22;15802;45.654;13.804;2023-05-07T07:11:25;19.70;99.90
28608;DHT22;15802;45.654;13.804;2023-05-07T07:13:50;19.70;99.90
28608;DHT22;15802;45.654;13.804;2023-05-07T07:16:16;19.80;99.90
28608;DHT22;15802;45.654;13.804;2023-05-07T07:18:42;19.90;99.90
28608;DHT22;15802;45.654;13.804;2023-05-07T07:21:07;20.00;99.90
28608;DHT22;15802;45.654;13.804;2023-05-07T07:23:33;20.20;99.90
28608;DHT22;15802;45.654;13.804;2023-05-07T07:25:59;20.30;99.90
28608;DHT22;15802;45.654;13.804;2023-05-07T07:28:24;20.30;99.90
28608;DHT22;15802;45.654;13.804;2023-05-07T07:30:51;20.40;99.90
28608;DHT22;15802;45.654;13.804;2023-05-07T07:33:16;20.60;99.90
28608;DHT22;15802;45.654;13.804;2023-05-07T07:35:42;20.70;99.90
28608;DHT22;15802;45.654;13.804;2023-05-07T07:38:08;20.70;99.90
28608;DHT22;15802;45.654;13.804;2023-05-07T07:40:34;20.80;99.90
28608;DHT22;15802;45.654;13.804;2023-05-07T07:43:00;20.90;99.90
28608;DHT22;15802;45.654;13.804;2023-05-07T07:45:26;21.00;99.90
28608;DHT22;15802;45.654;13.804;2023-05-07T07:47:52;21.10;99.90
28608;DHT22;15802;45.654;13.804;2023-05-07T07:50:18;21.20;99.90
28608;DHT22;15802;45.654;13.804;2023-05-07T07:52:44;21.30;99.90
28608;DHT22;15802;45.654;13.804;2023-05-07T07:55:09;21.40;99.90
28608;DHT22;15802;45.654;13.804;2023-05-07T07:57:35;21.40;99.90
28608;DHT22;15802;45.654;13.804;2023-05-07T08:00:01;21.50;99.90
28608;DHT22;15802;45.654;13.804;2023-05-07T08:02:27;21.60;99.90
28608;DHT22;15802;45.654;13.804;2023-05-07T08:04:52;21.70;99.90
28608;DHT22;15802;45.654;13.804;2023-05-07T08:07:18;21.80;99.90
28608;DHT22;15802;45.654;13.804;2023-05-07T08:09:45;21.90;99.90
28608;DHT22;15802;45.654;13.804;2023-05-07T08:12:11;21.90;99.90
28608;DHT22;15802;45.654;13.804;2023-05-07T08:14:37;21.90;99.90
28608;DHT22;15802;45.654;13.804;2023-05-07T08:17:03;21.90;99.90
28608;DHT22;15802;45.654;13.804;2023-05-07T08:19:29;22.00;99.90
28608;DHT22;15802;45.654;13.804;2023-05-07T08:21:54;22.00;99.90
28608;DHT22;15802;45.654;13.804;2023-05-07T08:24:20;22.00;99.90
28608;DHT22;15802;45.654;13.804;2023-05-07T08:26:46;22.00;99.90
28608;DHT22;15802;45.654;13.804;2023-05-07T08:29:12;22.00;99.90
28608;DHT22;15802;45.654;13.804;2023-05-07T08:31:37;22.00;99.90
28608;DHT22;15802;45.654;13.804;2023-05-07T08:34:04;21.90;99.90
28608;DHT22;15802;45.654;13.804;2023-05-07T08:36:30;21.80;99.90
28608;DHT22;15802;45.654;13.804;2023-05-07T08:38:56;21.70;99.90
28608;DHT22;15802;45.654;13.804;2023-05-07T08:41:21;21.50;99.90
28608;DHT22;15802;45.654;13.804;2023-05-07T08:43:48;21.40;99.90
28608;DHT22;15802;45.654;13.804;2023-05-07T08:46:17;21.40;99.90
28608;DHT22;15802;45.654;13.804;2023-05-07T08:48:43;21.40;99.90
28608;DHT22;15802;45.654;13.804;2023-05-07T08:51:12;21.40;99.90
28608;DHT22;15802;45.654;13.804;2023-05-07T08:53:38;21.40;99.90
28608;DHT22;15802;45.654;13.804;2023-05-07T08:56:05;21.50;99.90
28608;DHT22;15802;45.654;13.804;2023-05-07T08:58:31;21.60;99.90
28608;DHT22;15802;45.654;13.804;2023-05-07T09:00:57;21.70;99.90
28608;DHT22;15802;45.654;13.804;2023-05-07T09:03:23;21.90;99.90
28608;DHT22;15802;45.654;13.804;2023-05-07T09:05:48;22.00;99.90
28608;DHT22;15802;45.654;13.804;2023-05-07T09:08:14;22.00;99.90
28608;DHT22;15802;45.654;13.804;2023-05-07T09:10:41;22.00;99.90
28608;DHT22;15802;45.654;13.804;2023-05-07T09:13:06;22.00;99.90
28608;DHT22;15802;45.654;13.804;2023-05-07T09:15:32;22.00;99.90
28608;DHT22;15802;45.654;13.804;2023-05-07T09:17:59;22.00;99.90
28608;DHT22;15802;45.654;13.804;2023-05-07T09:20:26;22.10;99.90
28608;DHT22;15802;45.654;13.804;2023-05-07T09:22:52;22.10;99.90
28608;DHT22;15802;45.654;13.804;2023-05-07T09:25:35;22.10;99.90
28608;DHT22;15802;45.654;13.804;2023-05-07T09:28:02;22.10;99.90
28608;DHT22;15802;45.654;13.804;2023-05-07T09:30:28;22.10;99.90
28608;DHT22;15802;45.654;13.804;2023-05-07T09:32:54;22.10;99.90
28608;DHT22;15802;45.654;13.804;2023-05-07T09:35:20;22.10;99.90
28608;DHT22;15802;45.654;13.804;2023-05-07T09:37:47;22.20;99.90
28608;DHT22;15802;45.654;13.804;2023-05-07T09:40:22;22.30;99.90
28608;DHT22;15802;45.654;13.804;2023-05-07T09:42:48;22.30;99.90
28608;DHT22;15802;45.654;13.804;2023-05-07T09:45:15;22.40;99.90
28608;DHT22;15802;45.654;13.804;2023-05-07T09:47:43;22.50;99.90
28608;DHT22;15802;45.654;13.804;2023-05-07T09:50:10;22.50;99.90
28608;DHT22;15802;45.654;13.804;2023-05-07T09:52:38;22.50;99.90
28608;DHT22;15802;45.654;13.804;2023-05-07T09:55:04;22.50;99.90
28608;DHT22;15802;45.654;13.804;2023-05-07T09:57:31;22.50;99.90
28608;DHT22;15802;45.654;13.804;2023-05-07T09:59:57;22.50;99.90
28608;DHT22;15802;45.654;13.804;2023-05-07T10:02:23;22.70;99.90
28608;DHT22;15802;45.654;13.804;2023-05-07T10:04:51;22.70;99.90
28608;DHT22;15802;45.654;13.804;2023-05-07T10:07:17;22.80;99.90
28608;DHT22;15802;45.654;13.804;2023-05-07T10:09:43;22.80;99.90
28608;DHT22;15802;45.654;13.804;2023-05-07T10:12:09;22.90;99.90
28608;DHT22;15802;45.654;13.804;2023-05-07T10:14:35;23.10;99.90
28608;DHT22;15802;45.654;13.804;2023-05-07T10:17:01;23.30;99.90
28608;DHT22;15802;45.654;13.804;2023-05-07T10:19:27;23.40;99.90
28608;DHT22;15802;45.654;13.804;2023-05-07T10:21:54;23.50;99.90
28608;DHT22;15802;45.654;13.804;2023-05-07T10:24:25;23.60;99.90
28608;DHT22;15802;45.654;13.804;2023-05-07T10:26:51;23.60;99.90
28608;DHT22;15802;45.654;13.804;2023-05-07T10:29:21;23.70;99.90
28608;DHT22;15802;45.654;13.804;2023-05-07T10:31:53;23.70;99.90
28608;DHT22;15802;45.654;13.804;2023-05-07T10:34:21;23.80;99.90
28608;DHT22;15802;45.654;13.804;2023-05-07T10:36:48;23.90;99.90
28608;DHT22;15802;45.654;13.804;2023-05-07T10:39:15;24.00;99.90
28608;DHT22;15802;45.654;13.804;2023-05-07T10:41:41;24.00;99.90
28608;DHT22;15802;45.654;13.804;2023-05-07T10:44:06;24.00;99.90
28608;DHT22;15802;45.654;13.804;2023-05-07T10:46:32;24.00;99.90
28608;DHT22;15802;45.654;13.804;2023-05-07T10:49:08;24.10;99.90
28608;DHT22;15802;45.654;13.804;2023-05-07T10:51:36;24.20;99.90
28608;DHT22;15802;45.654;13.804;2023-05-07T10:54:18;24.30;99.90
28608;DHT22;15802;45.654;13.804;2023-05-07T10:56:43;24.30;99.90
28608;DHT22;15802;45.654;13.804;2023-05-07T11:02:02;24.40;99.90
28608;DHT22;15802;45.654;13.804;2023-05-07T11:04:29;24.60;99.90
28608;DHT22;15802;45.654;13.804;2023-05-07T11:09:57;24.80;99.90
28608;DHT22;15802;45.654;13.804;2023-05-07T11:12:46;24.90;99.90
28608;DHT22;15802;45.654;13.804;2023-05-07T11:15:12;24.80;99.90
28608;DHT22;15802;45.654;13.804;2023-05-07T11:17:57;24.80;99.90
28608;DHT22;15802;45.654;13.804;2023-05-07T11:20:55;24.90;99.90
28608;DHT22;15802;45.654;13.804;2023-05-07T11:23:17;24.90;99.90
28608;DHT22;15802;45.654;13.804;2023-05-07T11:25:58;24.90;99.90
28608;DHT22;15802;45.654;13.804;2023-05-07T11:28:24;25.00;99.90
28608;DHT22;15802;45.654;13.804;2023-05-07T11:30:50;24.90;99.90
28608;DHT22;15802;45.654;13.804;2023-05-07T11:33:16;25.10;99.90
28608;DHT22;15802;45.654;13.804;2023-05-07T11:35:42;25.20;99.90
28608;DHT22;15802;45.654;13.804;2023-05-07T11:38:08;25.30;99.90
28608;DHT22;15802;45.654;13.804;2023-05-07T11:40:33;25.40;99.90
28608;DHT22;15802;45.654;13.804;2023-05-07T11:42:59;25.60;99.90
28608;DHT22;15802;45.654;13.804;2023-05-07T11:45:35;25.50;99.90
28608;DHT22;15802;45.654;13.804;2023-05-07T11:48:02;25.60;99.90
28608;DHT22;15802;45.654;13.804;2023-05-07T11:50:27;25.60;99.90
28608;DHT22;15802;45.654;13.804;2023-05-07T11:52:53;25.60;99.90
28608;DHT22;15802;45.654;13.804;2023-05-07T11:55:19;25.60;99.90
28608;DHT22;15802;45.654;13.804;2023-05-07T11:57:44;25.70;99.90
28608;DHT22;15802;45.654;13.804;2023-05-07T12:00:10;25.70;99.90
28608;DHT22;15802;45.654;13.804;2023-05-07T12:02:36;25.80;99.90
28608;DHT22;15802;45.654;13.804;2023-05-07T12:05:02;25.80;99.90
28608;DHT22;15802;45.654;13.804;2023-05-07T12:07:27;25.70;99.90
28608;DHT22;15802;45.654;13.804;2023-05-07T12:09:53;25.80;99.90
28608;DHT22;15802;45.654;13.804;2023-05-07T12:12:19;25.80;99.90
28608;DHT22;15802;45.654;13.804;2023-05-07T12:14:45;25.80;99.90
28608;DHT22;15802;45.654;13.804;2023-05-07T12:17:11;25.80;99.90
28608;DHT22;15802;45.654;13.804;2023-05-07T12:19:38;25.80;99.90
28608;DHT22;15802;45.654;13.804;2023-05-07T12:22:07;25.70;99.90
28608;DHT22;15802;45.654;13.804;2023-05-07T12:24:46;25.70;99.90
28608;DHT22;15802;45.654;13.804;2023-05-07T12:27:13;25.60;99.90
28608;DHT22;15802;45.654;13.804;2023-05-07T12:29:38;25.60;99.90
28608;DHT22;15802;45.654;13.804;2023-05-07T12:32:06;25.60;99.90
28608;DHT22;15802;45.654;13.804;2023-05-07T12:34:35;25.60;99.90
28608;DHT22;15802;45.654;13.804;2023-05-07T12:37:02;25.60;99.90
28608;DHT22;15802;45.654;13.804;2023-05-07T12:39:29;25.60;99.90
28608;DHT22;15802;45.654;13.804;2023-05-07T12:41:55;25.60;99.90
28608;DHT22;15802;45.654;13.804;2023-05-07T12:44:22;25.50;99.90
28608;DHT22;15802;45.654;13.804;2023-05-07T12:46:48;25.50;99.90
28608;DHT22;15802;45.654;13.804;2023-05-07T12:49:14;25.60;99.90
28608;DHT22;15802;45.654;13.804;2023-05-07T12:51:40;25.70;99.90
28608;DHT22;15802;45.654;13.804;2023-05-07T12:54:05;25.70;99.90
28608;DHT22;15802;45.654;13.804;2023-05-07T12:56:31;25.60;99.90
28608;DHT22;15802;45.654;13.804;2023-05-07T12:58:57;25.50;99.90
28608;DHT22;15802;45.654;13.804;2023-05-07T13:01:28;25.60;99.90
28608;DHT22;15802;45.654;13.804;2023-05-07T13:03:53;25.60;99.90
28608;DHT22;15802;45.654;13.804;2023-05-07T13:06:19;25.60;99.90
28608;DHT22;15802;45.654;13.804;2023-05-07T13:08:45;25.60;99.90
28608;DHT22;15802;45.654;13.804;2023-05-07T13:11:11;25.50;99.90
28608;DHT22;15802;45.654;13.804;2023-05-07T13:13:37;25.40;99.90
28608;DHT22;15802;45.654;13.804;2023-05-07T13:16:04;25.40;99.90
28608;DHT22;15802;45.654;13.804;2023-05-07T13:18:38;25.10;99.90
28608;DHT22;15802;45.654;13.804;2023-05-07T13:21:04;24.90;99.90
28608;DHT22;15802;45.654;13.804;2023-05-07T13:23:30;24.90;99.90
28608;DHT22;15802;45.654;13.804;2023-05-07T13:25:56;24.80;99.90
28608;DHT22;15802;45.654;13.804;2023-05-07T13:28:22;24.80;99.90
28608;DHT22;15802;45.654;13.804;2023-05-07T13:30:48;24.60;99.90
28608;DHT22;15802;45.654;13.804;2023-05-07T13:33:13;24.50;99.90
28608;DHT22;15802;45.654;13.804;2023-05-07T13:35:40;24.20;99.90
28608;DHT22;15802;45.654;13.804;2023-05-07T13:38:06;24.00;99.90
28608;DHT22;15802;45.654;13.804;2023-05-07T13:40:32;23.80;99.90
28608;DHT22;15802;45.654;13.804;2023-05-07T13:42:57;23.60;99.90
28608;DHT22;15802;45.654;13.804;2023-05-07T13:45:24;23.50;99.90
28608;DHT22;15802;45.654;13.804;2023-05-07T13:47:51;23.40;99.90
28608;DHT22;15802;45.654;13.804;2023-05-07T13:50:16;23.30;99.90
28608;DHT22;15802;45.654;13.804;2023-05-07T13:52:43;23.20;99.90
28608;DHT22;15802;45.654;13.804;2023-05-07T13:55:11;23.10;99.90
28608;DHT22;15802;45.654;13.804;2023-05-07T13:57:36;23.00;99.90
28608;DHT22;15802;45.654;13.804;2023-05-07T14:00:03;22.90;99.90
28608;DHT22;15802;45.654;13.804;2023-05-07T14:02:30;23.10;99.90
28608;DHT22;15802;45.654;13.804;2023-05-07T14:04:56;23.10;99.90
28608;DHT22;15802;45.654;13.804;2023-05-07T14:07:21;23.10;99.90
28608;DHT22;15802;45.654;13.804;2023-05-07T14:09:47;23.10;99.90
28608;DHT22;15802;45.654;13.804;2023-05-07T14:12:13;23.10;99.90
28608;DHT22;15802;45.654;13.804;2023-05-07T14:14:39;23.10;99.90
28608;DHT22;15802;45.654;13.804;2023-05-07T14:17:04;23.30;99.90
28608;DHT22;15802;45.654;13.804;2023-05-07T14:19:30;23.40;99.90
28608;DHT22;15802;45.654;13.804;2023-05-07T14:21:56;23.60;99.90
28608;DHT22;15802;45.654;13.804;2023-05-07T14:24:21;23.70;99.90
28608;DHT22;15802;45.654;13.804;2023-05-07T14:26:47;23.80;99.90
28608;DHT22;15802;45.654;13.804;2023-05-07T14:29:13;24.00;99.90
28608;DHT22;15802;45.654;13.804;2023-05-07T14:31:40;24.10;99.90
28608;DHT22;15802;45.654;13.804;2023-05-07T14:34:06;24.00;99.90
28608;DHT22;15802;45.654;13.804;2023-05-07T14:36:32;24.10;99.90
28608;DHT22;15802;45.654;13.804;2023-05-07T14:38:58;24.20;99.90
28608;DHT22;15802;45.654;13.804;2023-05-07T14:41:24;24.10;99.90
28608;DHT22;15802;45.654;13.804;2023-05-07T14:43:50;24.10;99.90
28608;DHT22;15802;45.654;13.804;2023-05-07T14:46:17;24.00;99.90
28608;DHT22;15802;45.654;13.804;2023-05-07T14:48:43;23.80;99.90
28608;DHT22;15802;45.654;13.804;2023-05-07T14:51:08;23.60;99.90
28608;DHT22;15802;45.654;13.804;2023-05-07T14:53:37;23.60;99.90
28608;DHT22;15802;45.654;13.804;2023-05-07T14:56:03;23.50;99.90
28608;DHT22;15802;45.654;13.804;2023-05-07T14:58:29;23.30;99.90
28608;DHT22;15802;45.654;13.804;2023-05-07T15:00:54;23.40;99.90
28608;DHT22;15802;45.654;13.804;2023-05-07T15:03:20;23.50;99.90
28608;DHT22;15802;45.654;13.804;2023-05-07T15:05:47;23.60;99.90
28608;DHT22;15802;45.654;13.804;2023-05-07T15:08:12;23.70;99.90
28608;DHT22;15802;45.654;13.804;2023-05-07T15:10:38;23.80;99.90
28608;DHT22;15802;45.654;13.804;2023-05-07T15:13:06;23.90;99.90
28608;DHT22;15802;45.654;13.804;2023-05-07T15:15:32;23.80;99.90